Current Weather

Persian Gulf Airport

Persian Gulf Airport, Iran (OIBP)

Report from: Sunday, February 25, 2024 12:00 AM UTC
Current time: Sunday, February 25, 2024 12:56 AM UTC

Nearby weather – Weather history – Daily summaries
Weather forecast

Temperature20.0°C (68.0°F)
Dew point17.0°C (62.6°F)
Winds Calm
Clouds Sky clear
Altimeter29.79 in.Hg (1009 mB)
Relative humidity83 %
Density altitude1,001 ft. (305 m)
Remarks Ceiling and visibility OK
Flight conditions Visual Meteorological Conditions
Raw dataOIBP 250000Z 00000KT CAVOK 20/17 Q1008 A2979
An error has occurred. This application may no longer respond until reloaded. Reload 🗙